sensor_id;sensor_type;location;lat;lon;timestamp;pressure;altitude;pressure_sealevel;temperature;humidity
10852;BME280;5479;52.046;6.314;2022-09-17T00:01:35;101090.66;;;10.41;100.00
10852;BME280;5479;52.046;6.314;2022-09-17T00:04:03;101095.91;;;10.42;100.00
10852;BME280;5479;52.046;6.314;2022-09-17T00:06:34;101086.69;;;10.49;100.00
10852;BME280;5479;52.046;6.314;2022-09-17T00:09:03;101099.75;;;10.52;100.00
10852;BME280;5479;52.046;6.314;2022-09-17T00:11:34;101105.16;;;10.51;100.00
10852;BME280;5479;52.046;6.314;2022-09-17T00:14:04;101104.88;;;10.55;100.00
10852;BME280;5479;52.046;6.314;2022-09-17T00:16:37;101101.22;;;10.58;100.00
10852;BME280;5479;52.046;6.314;2022-09-17T00:19:13;101102.94;;;10.59;100.00
10852;BME280;5479;52.046;6.314;2022-09-17T00:21:41;101107.66;;;10.69;100.00
10852;BME280;5479;52.046;6.314;2022-09-17T00:24:11;101119.59;;;10.76;100.00
10852;BME280;5479;52.046;6.314;2022-09-17T00:26:40;101118.25;;;10.69;100.00
10852;BME280;5479;52.046;6.314;2022-09-17T00:29:09;101116.44;;;10.70;100.00
10852;BME280;5479;52.046;6.314;2022-09-17T00:31:39;101109.69;;;10.64;100.00
10852;BME280;5479;52.046;6.314;2022-09-17T00:34:07;101113.44;;;10.60;100.00
10852;BME280;5479;52.046;6.314;2022-09-17T00:36:36;101111.06;;;10.71;100.00
10852;BME280;5479;52.046;6.314;2022-09-17T00:39:06;101110.53;;;10.65;100.00
10852;BME280;5479;52.046;6.314;2022-09-17T00:41:36;101115.16;;;10.61;100.00
10852;BME280;5479;52.046;6.314;2022-09-17T00:44:38;101105.91;;;10.53;100.00
10852;BME280;5479;52.046;6.314;2022-09-17T00:47:15;101106.69;;;10.55;100.00
10852;BME280;5479;52.046;6.314;2022-09-17T00:49:44;101109.16;;;10.58;100.00
10852;BME280;5479;52.046;6.314;2022-09-17T00:52:17;101110.88;;;10.59;100.00
10852;BME280;5479;52.046;6.314;2022-09-17T00:54:51;101122.16;;;10.62;100.00
10852;BME280;5479;52.046;6.314;2022-09-17T00:57:21;101126.34;;;10.66;100.00
10852;BME280;5479;52.046;6.314;2022-09-17T00:59:49;101125.38;;;10.67;100.00
10852;BME280;5479;52.046;6.314;2022-09-17T01:02:19;101121.50;;;10.74;100.00
10852;BME280;5479;52.046;6.314;2022-09-17T01:04:47;101128.66;;;10.72;100.00
10852;BME280;5479;52.046;6.314;2022-09-17T01:07:25;101129.44;;;10.74;100.00
10852;BME280;5479;52.046;6.314;2022-09-17T01:10:03;101124.47;;;10.68;100.00
10852;BME280;5479;52.046;6.314;2022-09-17T01:12:54;101126.50;;;10.63;100.00
10852;BME280;5479;52.046;6.314;2022-09-17T01:15:34;101128.63;;;10.57;100.00
10852;BME280;5479;52.046;6.314;2022-09-17T01:18:34;101131.38;;;10.55;100.00
10852;BME280;5479;52.046;6.314;2022-09-17T01:21:36;101136.50;;;10.58;100.00
10852;BME280;5479;52.046;6.314;2022-09-17T01:27:48;101144.31;;;10.44;100.00
10852;BME280;5479;52.046;6.314;2022-09-17T01:30:51;101139.34;;;10.38;100.00
10852;BME280;5479;52.046;6.314;2022-09-17T01:33:26;101137.09;;;10.30;100.00
10852;BME280;5479;52.046;6.314;2022-09-17T01:36:05;101140.16;;;10.23;100.00
10852;BME280;5479;52.046;6.314;2022-09-17T01:38:42;101151.06;;;10.17;100.00
10852;BME280;5479;52.046;6.314;2022-09-17T01:41:23;101143.22;;;10.15;100.00
10852;BME280;5479;52.046;6.314;2022-09-17T01:43:57;101140.47;;;10.17;100.00
10852;BME280;5479;52.046;6.314;2022-09-17T01:46:32;101149.53;;;10.13;100.00
10852;BME280;5479;52.046;6.314;2022-09-17T01:49:04;101146.38;;;10.05;100.00
10852;BME280;5479;52.046;6.314;2022-09-17T01:51:36;101150.28;;;9.98;100.00
10852;BME280;5479;52.046;6.314;2022-09-17T01:54:11;101161.63;;;10.00;100.00
10852;BME280;5479;52.046;6.314;2022-09-17T01:56:44;101163.34;;;10.01;100.00
10852;BME280;5479;52.046;6.314;2022-09-17T01:59:18;101159.84;;;10.00;100.00
10852;BME280;5479;52.046;6.314;2022-09-17T02:01:51;101154.72;;;9.97;100.00
10852;BME280;5479;52.046;6.314;2022-09-17T02:04:25;101156.97;;;10.05;100.00
10852;BME280;5479;52.046;6.314;2022-09-17T02:06:57;101154.81;;;10.13;100.00
10852;BME280;5479;52.046;6.314;2022-09-17T02:09:30;101159.38;;;10.09;100.00
10852;BME280;5479;52.046;6.314;2022-09-17T02:12:04;101162.59;;;10.16;100.00
10852;BME280;5479;52.046;6.314;2022-09-17T02:14:36;101157.66;;;10.25;100.00
10852;BME280;5479;52.046;6.314;2022-09-17T02:17:12;101156.59;;;10.29;100.00
10852;BME280;5479;52.046;6.314;2022-09-17T02:19:42;101167.88;;;10.16;100.00
10852;BME280;5479;52.046;6.314;2022-09-17T02:22:19;101171.75;;;10.26;100.00
10852;BME280;5479;52.046;6.314;2022-09-17T02:24:57;101160.00;;;10.32;100.00
10852;BME280;5479;52.046;6.314;2022-09-17T02:27:36;101155.22;;;10.38;100.00
10852;BME280;5479;52.046;6.314;2022-09-17T02:30:08;101156.25;;;10.36;100.00
10852;BME280;5479;52.046;6.314;2022-09-17T02:32:37;101142.19;;;10.35;100.00
10852;BME280;5479;52.046;6.314;2022-09-17T02:35:06;101142.25;;;10.34;100.00
10852;BME280;5479;52.046;6.314;2022-09-17T02:37:34;101153.00;;;10.30;100.00
10852;BME280;5479;52.046;6.314;2022-09-17T02:40:03;101154.16;;;10.25;100.00
10852;BME280;5479;52.046;6.314;2022-09-17T02:42:42;101161.34;;;10.23;100.00
10852;BME280;5479;52.046;6.314;2022-09-17T02:45:25;101160.56;;;10.21;100.00
10852;BME280;5479;52.046;6.314;2022-09-17T02:48:10;101167.34;;;10.26;100.00
10852;BME280;5479;52.046;6.314;2022-09-17T02:51:04;101177.97;;;10.25;100.00
10852;BME280;5479;52.046;6.314;2022-09-17T02:53:42;101186.94;;;10.22;100.00
10852;BME280;5479;52.046;6.314;2022-09-17T02:56:17;101182.34;;;10.26;100.00
10852;BME280;5479;52.046;6.314;2022-09-17T02:58:51;101179.00;;;10.22;100.00
10852;BME280;5479;52.046;6.314;2022-09-17T03:01:27;101182.50;;;10.23;100.00
10852;BME280;5479;52.046;6.314;2022-09-17T03:03:58;101184.06;;;10.27;100.00
10852;BME280;5479;52.046;6.314;2022-09-17T03:06:29;101175.19;;;10.28;100.00
10852;BME280;5479;52.046;6.314;2022-09-17T03:08:57;101181.25;;;10.30;100.00
10852;BME280;5479;52.046;6.314;2022-09-17T03:11:25;101176.75;;;10.32;100.00
10852;BME280;5479;52.046;6.314;2022-09-17T03:13:53;101188.19;;;10.33;100.00
10852;BME280;5479;52.046;6.314;2022-09-17T03:16:24;101191.06;;;10.28;100.00
10852;BME280;5479;52.046;6.314;2022-09-17T03:18:52;101187.00;;;10.38;100.00
10852;BME280;5479;52.046;6.314;2022-09-17T03:21:24;101184.53;;;10.35;100.00
10852;BME280;5479;52.046;6.314;2022-09-17T03:23:51;101178.13;;;10.39;100.00
10852;BME280;5479;52.046;6.314;2022-09-17T03:26:20;101169.56;;;10.34;100.00
10852;BME280;5479;52.046;6.314;2022-09-17T03:28:48;101167.63;;;10.38;100.00
10852;BME280;5479;52.046;6.314;2022-09-17T03:31:16;101169.25;;;10.40;100.00
10852;BME280;5479;52.046;6.314;2022-09-17T03:33:43;101172.63;;;10.26;100.00
10852;BME280;5479;52.046;6.314;2022-09-17T03:36:11;101165.91;;;10.19;100.00
10852;BME280;5479;52.046;6.314;2022-09-17T03:38:41;101165.44;;;10.11;100.00
10852;BME280;5479;52.046;6.314;2022-09-17T03:41:10;101172.06;;;10.03;100.00
10852;BME280;5479;52.046;6.314;2022-09-17T03:43:41;101171.13;;;10.04;100.00
10852;BME280;5479;52.046;6.314;2022-09-17T03:46:09;101168.88;;;9.96;100.00
10852;BME280;5479;52.046;6.314;2022-09-17T03:48:37;101177.19;;;9.89;100.00
10852;BME280;5479;52.046;6.314;2022-09-17T03:51:05;101179.06;;;9.87;100.00
10852;BME280;5479;52.046;6.314;2022-09-17T03:53:33;101185.66;;;9.78;100.00
10852;BME280;5479;52.046;6.314;2022-09-17T03:56:04;101177.66;;;9.80;100.00
10852;BME280;5479;52.046;6.314;2022-09-17T03:58:34;101182.94;;;9.80;100.00
10852;BME280;5479;52.046;6.314;2022-09-17T04:01:02;101194.94;;;9.87;100.00
10852;BME280;5479;52.046;6.314;2022-09-17T04:03:31;101214.22;;;9.89;100.00
10852;BME280;5479;52.046;6.314;2022-09-17T04:05:59;101238.03;;;10.06;100.00
10852;BME280;5479;52.046;6.314;2022-09-17T04:08:27;101229.03;;;10.10;100.00
10852;BME280;5479;52.046;6.314;2022-09-17T04:10:55;101221.38;;;10.04;100.00
10852;BME280;5479;52.046;6.314;2022-09-17T04:13:27;101220.91;;;9.96;100.00
10852;BME280;5479;52.046;6.314;2022-09-17T04:15:55;101218.22;;;9.97;100.00
10852;BME280;5479;52.046;6.314;2022-09-17T04:18:23;101202.25;;;9.99;100.00
10852;BME280;5479;52.046;6.314;2022-09-17T04:20:51;101205.03;;;9.96;100.00
10852;BME280;5479;52.046;6.314;2022-09-17T04:23:20;101212.34;;;9.91;100.00
10852;BME280;5479;52.046;6.314;2022-09-17T04:25:48;101223.81;;;9.91;100.00
10852;BME280;5479;52.046;6.314;2022-09-17T04:28:16;101224.19;;;9.84;100.00
10852;BME280;5479;52.046;6.314;2022-09-17T04:30:46;101223.72;;;9.76;100.00
10852;BME280;5479;52.046;6.314;2022-09-17T04:33:14;101213.03;;;9.77;100.00
10852;BME280;5479;52.046;6.314;2022-09-17T04:35:42;101212.84;;;9.82;100.00
10852;BME280;5479;52.046;6.314;2022-09-17T04:38:10;101196.63;;;9.88;100.00
10852;BME280;5479;52.046;6.314;2022-09-17T04:40:40;101193.84;;;9.91;100.00
10852;BME280;5479;52.046;6.314;2022-09-17T04:43:08;101191.19;;;9.91;100.00
10852;BME280;5479;52.046;6.314;2022-09-17T04:45:37;101193.22;;;9.86;100.00
10852;BME280;5479;52.046;6.314;2022-09-17T04:48:06;101188.84;;;9.85;100.00
10852;BME280;5479;52.046;6.314;2022-09-17T04:50:34;101194.47;;;9.79;100.00
10852;BME280;5479;52.046;6.314;2022-09-17T04:53:02;101191.97;;;9.76;100.00
10852;BME280;5479;52.046;6.314;2022-09-17T04:55:30;101198.94;;;9.77;100.00
10852;BME280;5479;52.046;6.314;2022-09-17T04:57:59;101208.13;;;9.69;100.00
10852;BME280;5479;52.046;6.314;2022-09-17T05:00:27;101222.44;;;9.65;100.00
10852;BME280;5479;52.046;6.314;2022-09-17T05:02:56;101242.13;;;9.77;100.00
10852;BME280;5479;52.046;6.314;2022-09-17T05:05:25;101246.41;;;9.80;100.00
10852;BME280;5479;52.046;6.314;2022-09-17T05:07:53;101220.53;;;9.86;100.00
10852;BME280;5479;52.046;6.314;2022-09-17T05:10:22;101217.31;;;9.80;100.00
10852;BME280;5479;52.046;6.314;2022-09-17T05:12:52;101224.66;;;9.92;100.00
10852;BME280;5479;52.046;6.314;2022-09-17T05:15:22;101231.97;;;9.87;100.00
10852;BME280;5479;52.046;6.314;2022-09-17T05:17:51;101238.28;;;9.84;100.00
10852;BME280;5479;52.046;6.314;2022-09-17T05:20:20;101243.97;;;9.94;100.00
10852;BME280;5479;52.046;6.314;2022-09-17T05:22:51;101226.22;;;9.96;100.00
10852;BME280;5479;52.046;6.314;2022-09-17T05:25:21;101228.22;;;9.91;100.00
10852;BME280;5479;52.046;6.314;2022-09-17T05:27:51;101241.88;;;10.00;100.00
10852;BME280;5479;52.046;6.314;2022-09-17T05:30:19;101242.09;;;9.96;100.00
10852;BME280;5479;52.046;6.314;2022-09-17T05:32:46;101234.63;;;10.04;100.00
10852;BME280;5479;52.046;6.314;2022-09-17T05:35:15;101225.00;;;10.03;100.00
10852;BME280;5479;52.046;6.314;2022-09-17T05:37:42;101232.06;;;10.02;100.00
10852;BME280;5479;52.046;6.314;2022-09-17T05:40:12;101228.09;;;9.94;100.00
10852;BME280;5479;52.046;6.314;2022-09-17T05:42:40;101226.06;;;9.99;100.00
10852;BME280;5479;52.046;6.314;2022-09-17T05:45:08;101231.34;;;9.99;100.00
10852;BME280;5479;52.046;6.314;2022-09-17T05:47:36;101229.81;;;9.95;100.00
10852;BME280;5479;52.046;6.314;2022-09-17T05:50:04;101235.44;;;9.87;100.00
10852;BME280;5479;52.046;6.314;2022-09-17T05:52:33;101235.31;;;9.90;100.00
10852;BME280;5479;52.046;6.314;2022-09-17T05:55:00;101244.81;;;9.94;100.00
10852;BME280;5479;52.046;6.314;2022-09-17T05:57:30;101235.31;;;9.90;100.00
10852;BME280;5479;52.046;6.314;2022-09-17T05:59:58;101238.91;;;9.89;100.00
10852;BME280;5479;52.046;6.314;2022-09-17T06:02:26;101251.13;;;9.92;100.00
10852;BME280;5479;52.046;6.314;2022-09-17T06:04:54;101256.63;;;9.87;100.00
10852;BME280;5479;52.046;6.314;2022-09-17T06:07:26;101262.34;;;10.14;100.00
10852;BME280;5479;52.046;6.314;2022-09-17T06:09:57;101276.69;;;10.44;100.00
10852;BME280;5479;52.046;6.314;2022-09-17T06:12:25;101271.56;;;10.41;100.00
10852;BME280;5479;52.046;6.314;2022-09-17T06:14:55;101268.34;;;10.69;100.00
10852;BME280;5479;52.046;6.314;2022-09-17T06:17:24;101250.56;;;10.88;100.00
10852;BME280;5479;52.046;6.314;2022-09-17T06:19:52;101249.47;;;11.08;100.00
10852;BME280;5479;52.046;6.314;2022-09-17T06:22:20;101262.56;;;11.11;100.00
10852;BME280;5479;52.046;6.314;2022-09-17T06:24:48;101258.09;;;10.96;100.00
10852;BME280;5479;52.046;6.314;2022-09-17T06:27:16;101265.75;;;10.84;100.00
10852;BME280;5479;52.046;6.314;2022-09-17T06:29:44;101254.84;;;10.90;100.00
10852;BME280;5479;52.046;6.314;2022-09-17T06:32:16;101256.53;;;10.91;100.00
10852;BME280;5479;52.046;6.314;2022-09-17T06:34:43;101264.34;;;11.74;100.00
10852;BME280;5479;52.046;6.314;2022-09-17T06:37:12;101264.97;;;12.97;100.00
10852;BME280;5479;52.046;6.314;2022-09-17T06:39:40;101270.97;;;13.28;100.00
10852;BME280;5479;52.046;6.314;2022-09-17T06:42:13;101269.69;;;12.78;100.00
10852;BME280;5479;52.046;6.314;2022-09-17T06:44:41;101270.50;;;12.20;100.00
10852;BME280;5479;52.046;6.314;2022-09-17T06:47:10;101269.28;;;11.65;100.00
10852;BME280;5479;52.046;6.314;2022-09-17T06:49:40;101266.19;;;12.33;100.00
10852;BME280;5479;52.046;6.314;2022-09-17T06:52:08;101277.81;;;13.18;100.00
10852;BME280;5479;52.046;6.314;2022-09-17T06:54:36;101271.59;;;13.60;100.00
10852;BME280;5479;52.046;6.314;2022-09-17T06:57:05;101271.91;;;14.36;100.00
10852;BME280;5479;52.046;6.314;2022-09-17T06:59:33;101269.16;;;15.13;100.00
10852;BME280;5479;52.046;6.314;2022-09-17T07:02:04;101273.84;;;16.42;100.00
10852;BME280;5479;52.046;6.314;2022-09-17T07:04:34;101265.72;;;17.45;100.00
10852;BME280;5479;52.046;6.314;2022-09-17T07:07:04;101255.06;;;18.20;96.65
10852;BME280;5479;52.046;6.314;2022-09-17T07:09:32;101264.25;;;17.63;93.62
10852;BME280;5479;52.046;6.314;2022-09-17T07:12:00;101268.00;;;16.37;100.00
10852;BME280;5479;52.046;6.314;2022-09-17T07:14:30;101274.78;;;15.34;100.00
10852;BME280;5479;52.046;6.314;2022-09-17T07:16:58;101277.38;;;14.20;100.00
10852;BME280;5479;52.046;6.314;2022-09-17T07:19:27;101292.97;;;13.59;100.00
10852;BME280;5479;52.046;6.314;2022-09-17T07:21:55;101285.63;;;13.76;100.00
10852;BME280;5479;52.046;6.314;2022-09-17T07:24:24;101265.44;;;14.90;100.00
10852;BME280;5479;52.046;6.314;2022-09-17T07:26:55;101267.53;;;15.48;100.00
10852;BME280;5479;52.046;6.314;2022-09-17T07:29:23;101263.75;;;16.11;100.00
10852;BME280;5479;52.046;6.314;2022-09-17T07:31:52;101275.22;;;16.24;100.00
10852;BME280;5479;52.046;6.314;2022-09-17T07:34:20;101273.78;;;15.73;100.00
10852;BME280;5479;52.046;6.314;2022-09-17T07:36:48;101270.72;;;15.53;100.00
10852;BME280;5479;52.046;6.314;2022-09-17T07:39:16;101275.94;;;15.67;100.00
10852;BME280;5479;52.046;6.314;2022-09-17T07:41:46;101278.56;;;15.06;100.00
10852;BME280;5479;52.046;6.314;2022-09-17T07:44:13;101277.91;;;14.65;100.00
10852;BME280;5479;52.046;6.314;2022-09-17T07:46:41;101277.06;;;15.02;100.00
10852;BME280;5479;52.046;6.314;2022-09-17T07:49:09;101274.66;;;16.55;100.00
10852;BME280;5479;52.046;6.314;2022-09-17T07:51:37;101263.53;;;17.39;98.01
10852;BME280;5479;52.046;6.314;2022-09-17T07:54:06;101264.31;;;17.95;89.96
10852;BME280;5479;52.046;6.314;2022-09-17T07:56:34;101266.91;;;17.74;86.24
10852;BME280;5479;52.046;6.314;2022-09-17T07:59:04;101268.16;;;17.37;92.27
10852;BME280;5479;52.046;6.314;2022-09-17T08:01:32;101268.13;;;17.81;89.39
10852;BME280;5479;52.046;6.314;2022-09-17T08:04:04;101281.44;;;17.61;87.20
10852;BME280;5479;52.046;6.314;2022-09-17T08:06:35;101273.06;;;18.29;86.94
10852;BME280;5479;52.046;6.314;2022-09-17T08:09:03;101267.50;;;18.73;85.36
10852;BME280;5479;52.046;6.314;2022-09-17T08:11:32;101275.66;;;18.19;85.86
10852;BME280;5479;52.046;6.314;2022-09-17T08:13:59;101265.97;;;18.07;84.51
10852;BME280;5479;52.046;6.314;2022-09-17T08:16:29;101278.25;;;18.41;86.34
10852;BME280;5479;52.046;6.314;2022-09-17T08:18:57;101277.47;;;19.43;80.53
10852;BME280;5479;52.046;6.314;2022-09-17T08:21:26;101274.50;;;18.33;83.93
10852;BME280;5479;52.046;6.314;2022-09-17T08:23:54;101288.13;;;17.22;90.20
10852;BME280;5479;52.046;6.314;2022-09-17T08:26:26;101275.47;;;15.74;100.00
10852;BME280;5479;52.046;6.314;2022-09-17T08:28:55;101269.38;;;14.60;100.00
10852;BME280;5479;52.046;6.314;2022-09-17T08:31:26;101287.72;;;13.71;100.00
10852;BME280;5479;52.046;6.314;2022-09-17T08:33:57;101280.88;;;13.67;100.00
10852;BME280;5479;52.046;6.314;2022-09-17T08:36:25;101277.22;;;14.36;100.00
10852;BME280;5479;52.046;6.314;2022-09-17T08:38:54;101279.59;;;15.29;100.00
10852;BME280;5479;52.046;6.314;2022-09-17T08:41:29;101285.75;;;15.54;100.00
10852;BME280;5479;52.046;6.314;2022-09-17T08:44:13;101285.97;;;16.70;100.00
10852;BME280;5479;52.046;6.314;2022-09-17T08:46:45;101279.47;;;17.29;98.02
10852;BME280;5479;52.046;6.314;2022-09-17T08:49:23;101283.88;;;18.06;98.27
10852;BME280;5479;52.046;6.314;2022-09-17T08:52:04;101274.25;;;18.36;94.38
10852;BME280;5479;52.046;6.314;2022-09-17T08:54:41;101274.53;;;18.95;84.68
10852;BME280;5479;52.046;6.314;2022-09-17T08:57:17;101271.56;;;19.49;83.68
10852;BME280;5479;52.046;6.314;2022-09-17T08:59:57;101283.97;;;18.89;80.02
10852;BME280;5479;52.046;6.314;2022-09-17T09:02:39;101293.47;;;17.77;91.75
10852;BME280;5479;52.046;6.314;2022-09-17T09:05:13;101298.88;;;16.41;100.00
10852;BME280;5479;52.046;6.314;2022-09-17T09:07:46;101303.19;;;15.22;100.00
10852;BME280;5479;52.046;6.314;2022-09-17T09:10:19;101309.09;;;14.23;100.00
10852;BME280;5479;52.046;6.314;2022-09-17T09:12:50;101334.22;;;13.66;100.00
10852;BME280;5479;52.046;6.314;2022-09-17T09:15:32;101329.31;;;12.44;100.00
10852;BME280;5479;52.046;6.314;2022-09-17T09:18:14;101337.78;;;11.89;100.00
10852;BME280;5479;52.046;6.314;2022-09-17T09:20:49;101332.94;;;11.49;100.00
10852;BME280;5479;52.046;6.314;2022-09-17T09:23:26;101311.53;;;11.36;100.00
10852;BME280;5479;52.046;6.314;2022-09-17T09:26:05;101317.50;;;11.24;100.00
10852;BME280;5479;52.046;6.314;2022-09-17T09:31:57;101314.88;;;12.18;100.00
10852;BME280;5479;52.046;6.314;2022-09-17T09:34:28;101313.63;;;13.96;100.00
10852;BME280;5479;52.046;6.314;2022-09-17T09:37:09;101308.66;;;15.46;100.00
10852;BME280;5479;52.046;6.314;2022-09-17T09:39:40;101314.22;;;16.74;100.00
10852;BME280;5479;52.046;6.314;2022-09-17T09:42:15;101305.03;;;17.44;100.00
10852;BME280;5479;52.046;6.314;2022-09-17T09:44:46;101306.75;;;17.34;100.00
10852;BME280;5479;52.046;6.314;2022-09-17T09:47:30;101306.06;;;16.75;100.00
10852;BME280;5479;52.046;6.314;2022-09-17T09:50:17;101298.63;;;15.86;100.00
10852;BME280;5479;52.046;6.314;2022-09-17T09:52:57;101295.59;;;15.41;100.00
10852;BME280;5479;52.046;6.314;2022-09-17T09:55:42;101298.09;;;15.81;100.00
10852;BME280;5479;52.046;6.314;2022-09-17T09:58:22;101295.00;;;16.80;100.00
10852;BME280;5479;52.046;6.314;2022-09-17T10:00:51;101294.28;;;18.00;100.00
10852;BME280;5479;52.046;6.314;2022-09-17T10:03:20;101292.03;;;18.68;97.95
10852;BME280;5479;52.046;6.314;2022-09-17T10:05:53;101284.06;;;18.26;94.99
10852;BME280;5479;52.046;6.314;2022-09-17T10:08:23;101288.53;;;18.04;94.98
10852;BME280;5479;52.046;6.314;2022-09-17T10:10:55;101286.84;;;18.97;96.52
10852;BME280;5479;52.046;6.314;2022-09-17T10:13:23;101284.97;;;19.18;89.17
10852;BME280;5479;52.046;6.314;2022-09-17T10:15:52;101271.72;;;19.26;85.83
10852;BME280;5479;52.046;6.314;2022-09-17T10:18:22;101280.78;;;18.75;87.59
10852;BME280;5479;52.046;6.314;2022-09-17T10:20:55;101275.06;;;19.09;89.57
10852;BME280;5479;52.046;6.314;2022-09-17T10:23:29;101271.41;;;20.00;80.82
10852;BME280;5479;52.046;6.314;2022-09-17T10:26:00;101266.63;;;19.23;84.57
10852;BME280;5479;52.046;6.314;2022-09-17T10:31:21;101274.09;;;18.90;82.36
10852;BME280;5479;52.046;6.314;2022-09-17T10:33:51;101285.75;;;18.58;87.07
10852;BME280;5479;52.046;6.314;2022-09-17T10:36:40;101276.41;;;19.55;81.28
10852;BME280;5479;52.046;6.314;2022-09-17T10:39:30;101273.41;;;19.48;79.02
10852;BME280;5479;52.046;6.314;2022-09-17T10:42:01;101269.19;;;18.74;86.53
10852;BME280;5479;52.046;6.314;2022-09-17T10:44:32;101291.03;;;17.19;98.42
10852;BME280;5479;52.046;6.314;2022-09-17T10:47:04;101303.50;;;15.55;100.00
10852;BME280;5479;52.046;6.314;2022-09-17T10:49:37;101304.31;;;14.42;100.00
10852;BME280;5479;52.046;6.314;2022-09-17T10:52:21;101300.75;;;13.62;100.00
10852;BME280;5479;52.046;6.314;2022-09-17T10:55:07;101303.25;;;13.22;100.00
10852;BME280;5479;52.046;6.314;2022-09-17T10:58:02;101300.53;;;13.24;100.00
10852;BME280;5479;52.046;6.314;2022-09-17T11:00:41;101286.75;;;13.99;100.00
10852;BME280;5479;52.046;6.314;2022-09-17T11:03:38;101280.94;;;15.96;100.00
10852;BME280;5479;52.046;6.314;2022-09-17T11:06:26;101279.44;;;15.92;100.00
10852;BME280;5479;52.046;6.314;2022-09-17T11:09:06;101276.50;;;15.22;100.00
10852;BME280;5479;52.046;6.314;2022-09-17T11:11:52;101274.28;;;14.91;100.00
10852;BME280;5479;52.046;6.314;2022-09-17T11:14:48;101262.22;;;15.23;100.00
10852;BME280;5479;52.046;6.314;2022-09-17T11:17:30;101265.13;;;15.93;100.00
10852;BME280;5479;52.046;6.314;2022-09-17T11:20:10;101263.53;;;17.39;100.00
10852;BME280;5479;52.046;6.314;2022-09-17T11:22:53;101268.72;;;18.17;100.00
10852;BME280;5479;52.046;6.314;2022-09-17T11:25:33;101269.28;;;17.57;100.00
10852;BME280;5479;52.046;6.314;2022-09-17T11:28:14;101277.00;;;16.12;100.00
10852;BME280;5479;52.046;6.314;2022-09-17T11:30:52;101279.84;;;14.63;100.00
10852;BME280;5479;52.046;6.314;2022-09-17T11:33:50;101270.50;;;14.04;100.00
10852;BME280;5479;52.046;6.314;2022-09-17T11:36:26;101281.00;;;13.38;100.00
10852;BME280;5479;52.046;6.314;2022-09-17T11:38:59;101278.47;;;13.22;100.00
10852;BME280;5479;52.046;6.314;2022-09-17T11:41:37;101280.19;;;13.78;100.00
10852;BME280;5479;52.046;6.314;2022-09-17T11:44:13;101271.47;;;14.42;100.00
10852;BME280;5479;52.046;6.314;2022-09-17T11:46:45;101277.28;;;14.99;100.00
10852;BME280;5479;52.046;6.314;2022-09-17T11:49:22;101274.94;;;15.07;100.00
10852;BME280;5479;52.046;6.314;2022-09-17T11:51:57;101269.69;;;15.18;100.00
10852;BME280;5479;52.046;6.314;2022-09-17T11:54:30;101261.81;;;16.37;100.00
10852;BME280;5479;52.046;6.314;2022-09-17T11:57:05;101259.75;;;16.64;100.00
10852;BME280;5479;52.046;6.314;2022-09-17T11:59:41;101255.16;;;17.10;100.00
10852;BME280;5479;52.046;6.314;2022-09-17T12:02:18;101296.03;;;16.55;100.00
10852;BME280;5479;52.046;6.314;2022-09-17T12:04:56;101297.84;;;15.47;100.00
10852;BME280;5479;52.046;6.314;2022-09-17T12:07:38;101288.78;;;14.62;100.00
10852;BME280;5479;52.046;6.314;2022-09-17T12:10:31;101289.50;;;13.85;100.00
10852;BME280;5479;52.046;6.314;2022-09-17T12:13:05;101279.50;;;13.05;100.00
10852;BME280;5479;52.046;6.314;2022-09-17T12:15:41;101273.41;;;13.03;100.00
10852;BME280;5479;52.046;6.314;2022-09-17T12:18:20;101261.75;;;13.20;100.00
10852;BME280;5479;52.046;6.314;2022-09-17T12:20:55;101262.38;;;13.52;100.00
10852;BME280;5479;52.046;6.314;2022-09-17T12:23:32;101256.63;;;13.99;100.00
10852;BME280;5479;52.046;6.314;2022-09-17T12:26:13;101253.38;;;14.85;100.00
10852;BME280;5479;52.046;6.314;2022-09-17T12:28:52;101254.19;;;15.36;100.00
10852;BME280;5479;52.046;6.314;2022-09-17T12:31:32;101248.00;;;15.48;100.00
10852;BME280;5479;52.046;6.314;2022-09-17T12:34:19;101249.41;;;15.77;100.00
10852;BME280;5479;52.046;6.314;2022-09-17T12:36:54;101241.19;;;16.15;100.00
10852;BME280;5479;52.046;6.314;2022-09-17T12:40:06;101230.97;;;16.09;100.00
10852;BME280;5479;52.046;6.314;2022-09-17T12:42:59;101217.31;;;16.70;100.00
10852;BME280;5479;52.046;6.314;2022-09-17T12:45:44;101227.16;;;16.35;100.00
10852;BME280;5479;52.046;6.314;2022-09-17T12:48:33;101252.31;;;15.00;100.00
10852;BME280;5479;52.046;6.314;2022-09-17T12:51:16;101308.47;;;13.38;100.00
10852;BME280;5479;52.046;6.314;2022-09-17T12:53:56;101290.88;;;12.49;100.00
10852;BME280;5479;52.046;6.314;2022-09-17T12:56:44;101277.47;;;12.07;100.00
10852;BME280;5479;52.046;6.314;2022-09-17T12:59:15;101274.75;;;12.08;100.00
10852;BME280;5479;52.046;6.314;2022-09-17T13:01:50;101265.28;;;12.19;100.00
10852;BME280;5479;52.046;6.314;2022-09-17T13:04:34;101265.75;;;12.41;100.00
10852;BME280;5479;52.046;6.314;2022-09-17T13:10:18;101255.78;;;13.16;100.00
10852;BME280;5479;52.046;6.314;2022-09-17T13:12:55;101246.28;;;13.26;100.00
10852;BME280;5479;52.046;6.314;2022-09-17T13:15:56;101240.56;;;13.32;100.00
10852;BME280;5479;52.046;6.314;2022-09-17T13:18:33;101241.72;;;13.14;100.00
10852;BME280;5479;52.046;6.314;2022-09-17T13:21:10;101262.25;;;13.12;100.00
10852;BME280;5479;52.046;6.314;2022-09-17T13:23:41;101271.78;;;13.01;100.00
10852;BME280;5479;52.046;6.314;2022-09-17T13:26:13;101262.47;;;12.80;100.00
10852;BME280;5479;52.046;6.314;2022-09-17T13:28:44;101257.59;;;12.58;100.00
10852;BME280;5479;52.046;6.314;2022-09-17T13:31:18;101256.47;;;12.48;100.00
10852;BME280;5479;52.046;6.314;2022-09-17T13:33:48;101257.78;;;12.55;100.00
10852;BME280;5479;52.046;6.314;2022-09-17T13:36:36;101267.19;;;12.60;100.00
10852;BME280;5479;52.046;6.314;2022-09-17T13:39:07;101257.06;;;12.67;100.00